createdAt,value
2019-04-20T00:01:50.499Z,9.00
2019-04-20T00:04:27.188Z,9.03
2019-04-20T00:06:56.500Z,8.37
2019-04-20T00:09:34.854Z,8.97
2019-04-20T00:12:10.739Z,9.30
2019-04-20T00:14:39.173Z,9.60
2019-04-20T00:17:11.636Z,8.80
2019-04-20T00:19:47.559Z,8.87
2019-04-20T00:22:24.642Z,8.95
2019-04-20T00:25:17.611Z,8.50
2019-04-20T00:28:25.073Z,8.37
2019-04-20T00:30:58.689Z,9.40
2019-04-20T00:33:36.393Z,9.08
2019-04-20T00:35:48.515Z,8.33
2019-04-20T00:38:25.992Z,7.85
2019-04-20T00:41:02.007Z,7.77
2019-04-20T00:43:32.977Z,9.13
2019-04-20T00:46:10.353Z,10.23
2019-04-20T00:48:47.342Z,10.30
2019-04-20T00:51:41.958Z,10.40
2019-04-20T00:53:48.135Z,10.47
2019-04-20T00:56:20.289Z,10.43
2019-04-20T00:59:06.055Z,10.30
2019-04-20T01:01:50.174Z,10.78
2019-04-20T01:04:20.125Z,9.60
2019-04-20T01:06:58.721Z,9.43
2019-04-20T01:09:30.882Z,8.73
2019-04-20T01:12:09.991Z,9.63
2019-04-20T01:14:43.696Z,9.03
2019-04-20T01:17:12.117Z,8.87
2019-04-20T01:19:43.985Z,8.93
2019-04-20T01:22:18.447Z,10.27
2019-04-20T01:24:54.617Z,9.00
2019-04-20T01:27:39.864Z,9.93
2019-04-20T01:30:10.220Z,9.60
2019-04-20T01:32:51.485Z,11.07
2019-04-20T01:35:24.773Z,11.80
2019-04-20T01:38:05.472Z,11.93
2019-04-20T01:40:19.109Z,12.67
2019-04-20T01:42:51.251Z,13.30
2019-04-20T01:45:30.712Z,13.63
2019-04-20T01:47:59.483Z,13.57
2019-04-20T01:50:33.717Z,14.07
2019-04-20T01:53:12.773Z,13.70
2019-04-20T01:55:50.897Z,12.50
2019-04-20T01:58:55.299Z,13.22
2019-04-20T02:01:34.319Z,10.93
2019-04-20T02:04:24.801Z,12.63
2019-04-20T02:06:55.266Z,12.30
2019-04-20T02:09:28.051Z,13.93
2019-04-20T02:12:05.888Z,17.53
2019-04-20T02:14:42.457Z,22.80
2019-04-20T02:17:16.740Z,27.30
2019-04-20T02:20:00.972Z,22.57
2019-04-20T02:22:37.287Z,23.80
2019-04-20T02:24:51.046Z,21.47
2019-04-20T02:27:30.822Z,17.70
2019-04-20T02:30:25.274Z,16.93
2019-04-20T02:33:19.799Z,15.80
2019-04-20T02:41:47.737Z,16.40
2019-04-20T02:44:21.801Z,15.87
2019-04-20T02:46:51.161Z,15.40
2019-04-20T02:51:54.740Z,12.47
2019-04-20T02:54:40.828Z,12.27
2019-04-20T02:57:05.714Z,12.60
2019-04-20T02:59:53.292Z,12.30
2019-04-20T03:01:55.274Z,12.67
2019-04-20T03:04:20.553Z,15.83
2019-04-20T03:06:59.791Z,13.80
2019-04-20T03:09:39.973Z,13.83
2019-04-20T03:12:18.596Z,13.20
2019-04-20T03:14:39.911Z,13.53
2019-04-20T03:17:22.695Z,12.73
2019-04-20T03:19:47.647Z,12.30
2019-04-20T03:22:46.666Z,13.03
2019-04-20T03:25:05.147Z,12.80
2019-04-20T03:27:45.994Z,11.97
2019-04-20T03:31:22.814Z,13.65
2019-04-20T03:33:44.710Z,14.30
2019-04-20T03:36:10.309Z,13.70
2019-04-20T03:38:34.844Z,13.20
2019-04-20T03:40:59.259Z,13.57
2019-04-20T03:43:20.093Z,12.70
2019-04-20T03:45:59.501Z,13.17
2019-04-20T03:48:41.386Z,11.33
2019-04-20T03:51:25.092Z,12.07
2019-04-20T03:54:25.166Z,12.63
2019-04-20T03:57:16.966Z,13.07
2019-04-20T03:59:55.089Z,12.40
2019-04-20T04:03:04.207Z,11.73
2019-04-20T04:05:28.860Z,12.67
2019-04-20T04:07:55.876Z,12.43
2019-04-20T04:10:30.441Z,12.75
2019-04-20T04:13:13.053Z,11.80
2019-04-20T04:15:52.034Z,12.40
2019-04-20T04:18:28.093Z,11.27
2019-04-20T04:21:03.023Z,10.90
2019-04-20T04:23:44.547Z,12.70
2019-04-20T04:26:22.104Z,11.20
2019-04-20T04:28:55.969Z,12.23
2019-04-20T04:31:34.955Z,13.37
2019-04-20T04:34:20.668Z,13.57
2019-04-20T04:36:35.955Z,14.63
2019-04-20T04:39:17.785Z,14.70
2019-04-20T04:41:51.022Z,13.03
2019-04-20T04:44:17.990Z,16.70
2019-04-20T04:46:43.520Z,18.33
2019-04-20T04:49:18.349Z,18.03
2019-04-20T04:51:51.477Z,17.30
2019-04-20T04:54:25.927Z,15.13
2019-04-20T04:56:50.413Z,13.37
2019-04-20T04:59:23.437Z,12.43
2019-04-20T05:01:58.396Z,13.63
2019-04-20T05:05:12.467Z,15.77
2019-04-20T05:07:46.054Z,17.87
2019-04-20T05:10:03.804Z,19.33
2019-04-20T05:12:37.220Z,18.43
2019-04-20T05:15:22.326Z,18.37
2019-04-20T05:18:07.184Z,18.05
2019-04-20T05:20:45.098Z,19.55
2019-04-20T05:23:12.667Z,20.53
2019-04-20T05:26:19.704Z,22.50
2019-04-20T05:28:47.317Z,25.03
2019-04-20T05:31:09.709Z,25.55
2019-04-20T05:34:08.095Z,27.13
2019-04-20T05:36:29.616Z,26.30
2019-04-20T05:39:15.849Z,28.10
2019-04-20T05:41:44.059Z,28.47
2019-04-20T05:44:12.653Z,28.13
2019-04-20T05:46:53.242Z,28.57
2019-04-20T05:49:27.168Z,27.27
2019-04-20T05:52:04.117Z,27.15
2019-04-20T05:54:39.126Z,27.20
2019-04-20T05:57:17.477Z,27.50
2019-04-20T05:59:40.922Z,27.17
2019-04-20T06:02:15.998Z,28.67
2019-04-20T06:04:59.923Z,26.55
2019-04-20T06:07:25.271Z,27.43
2019-04-20T06:10:00.597Z,28.33
2019-04-20T06:12:33.071Z,28.13
2019-04-20T06:15:15.481Z,27.40
2019-04-20T06:18:02.486Z,26.83
2019-04-20T06:20:46.970Z,27.97
2019-04-20T06:23:47.497Z,28.93
2019-04-20T06:26:33.556Z,28.83
2019-04-20T06:28:43.906Z,30.73
2019-04-20T06:31:27.969Z,29.83
2019-04-20T06:34:31.061Z,30.80
2019-04-20T06:37:06.992Z,30.90
2019-04-20T06:39:36.986Z,30.57
2019-04-20T06:42:16.155Z,31.23
2019-04-20T06:44:41.473Z,30.50
2019-04-20T06:47:22.761Z,29.27
2019-04-20T06:49:48.078Z,29.23
2019-04-20T06:52:42.495Z,30.50
2019-04-20T06:55:15.692Z,29.70
2019-04-20T06:57:50.390Z,29.57
2019-04-20T07:00:42.058Z,29.63
2019-04-20T07:03:01.860Z,30.20
2019-04-20T07:05:37.896Z,30.37
2019-04-20T07:08:29.120Z,29.23
2019-04-20T07:10:54.469Z,31.33
2019-04-20T07:13:14.304Z,29.77
2019-04-20T07:16:13.763Z,28.97
2019-04-20T07:19:00.813Z,28.30
2019-04-20T07:24:35.066Z,28.90
2019-04-20T07:27:04.811Z,28.90
2019-04-20T07:29:44.915Z,30.33
2019-04-20T07:32:09.096Z,30.00
2019-04-20T07:34:51.557Z,29.90
2019-04-20T07:40:05.608Z,28.10
2019-04-20T07:42:40.786Z,28.95
2019-04-20T07:45:16.882Z,30.13
2019-04-20T07:47:55.296Z,29.70
2019-04-20T07:50:13.678Z,28.70
2019-04-20T07:52:46.345Z,29.43
2019-04-20T07:57:57.711Z,29.20
2019-04-20T08:00:51.447Z,30.23
2019-04-20T08:06:02.465Z,26.83
2019-04-20T08:08:47.603Z,29.10
2019-04-20T08:11:13.967Z,28.87
2019-04-20T08:13:59.037Z,27.40
2019-04-20T08:16:41.124Z,27.23
2019-04-20T08:19:08.431Z,27.00
2019-04-20T08:21:43.708Z,25.43
2019-04-20T08:24:13.288Z,28.87
2019-04-20T08:26:34.819Z,27.43
2019-04-20T08:29:29.983Z,25.13
2019-04-20T08:32:38.960Z,23.90
2019-04-20T08:35:24.431Z,24.97
2019-04-20T08:38:12.264Z,24.70
2019-04-20T08:40:25.420Z,23.65
2019-04-20T08:43:13.059Z,22.30
2019-04-20T08:45:45.809Z,20.30
2019-04-20T08:48:18.873Z,18.07
2019-04-20T08:50:51.733Z,17.13
2019-04-20T08:53:27.598Z,18.20
2019-04-20T08:55:54.244Z,18.70
2019-04-20T08:58:13.642Z,18.93
2019-04-20T09:00:50.151Z,17.40
2019-04-20T09:03:25.392Z,18.00
2019-04-20T09:06:04.637Z,16.83
2019-04-20T09:08:37.630Z,16.00
2019-04-20T09:11:19.658Z,13.20
2019-04-20T09:13:43.167Z,13.57
2019-04-20T09:16:13.164Z,14.00
2019-04-20T09:18:52.463Z,14.80
2019-04-20T09:21:29.682Z,13.98
2019-04-20T09:24:21.714Z,13.27
2019-04-20T09:26:43.207Z,12.60
2019-04-20T09:29:12.698Z,12.70
2019-04-20T09:31:52.109Z,11.80
2019-04-20T09:34:50.899Z,9.98
2019-04-20T09:37:33.883Z,11.20
2019-04-20T09:40:28.263Z,11.27
2019-04-20T09:43:08.912Z,9.87
2019-04-20T09:45:48.986Z,9.10
2019-04-20T09:48:29.798Z,8.33
2019-04-20T09:51:15.043Z,8.80
2019-04-20T09:53:39.216Z,9.27
2019-04-20T09:56:18.159Z,8.93
2019-04-20T09:58:55.157Z,5.70
2019-04-20T10:01:19.146Z,5.30
2019-04-20T10:03:44.911Z,4.73
2019-04-20T10:06:23.042Z,4.90
2019-04-20T10:08:56.242Z,4.43
2019-04-20T10:11:25.578Z,3.80
2019-04-20T10:13:58.559Z,4.40
2019-04-20T10:16:31.999Z,9.20
2019-04-20T10:19:04.921Z,11.20
2019-04-20T10:21:39.546Z,9.57
2019-04-20T10:24:12.607Z,10.23
2019-04-20T10:26:45.250Z,9.90
2019-04-20T10:29:19.605Z,8.17
2019-04-20T10:31:57.422Z,8.67
2019-04-20T10:34:28.494Z,8.90
2019-04-20T10:37:19.734Z,8.07
2019-04-20T10:39:52.369Z,6.20
2019-04-20T10:42:24.359Z,7.93
2019-04-20T10:45:00.348Z,6.67
2019-04-20T10:47:32.756Z,5.67
2019-04-20T10:50:05.099Z,5.63
2019-04-20T10:52:38.122Z,3.97
2019-04-20T10:55:12.482Z,4.85
2019-04-20T10:57:44.141Z,4.17
2019-04-20T11:00:17.503Z,4.87
2019-04-20T11:02:51.329Z,4.37
2019-04-20T11:05:24.478Z,4.67
2019-04-20T11:07:56.836Z,4.70
2019-04-20T11:10:34.503Z,4.13
2019-04-20T11:13:03.205Z,4.87
2019-04-20T11:15:36.647Z,4.43
2019-04-20T11:18:09.299Z,4.70
2019-04-20T11:20:41.523Z,4.43
2019-04-20T11:23:14.002Z,4.93
2019-04-20T11:25:46.389Z,4.70
2019-04-20T11:28:18.032Z,3.20
2019-04-20T11:30:52.135Z,3.17
2019-04-20T11:33:24.566Z,3.87
2019-04-20T11:35:57.156Z,3.90
2019-04-20T11:38:30.203Z,3.70
2019-04-20T11:41:11.188Z,3.13
2019-04-20T11:43:38.184Z,3.43
2019-04-20T11:46:12.239Z,3.37
2019-04-20T11:48:45.467Z,3.87
2019-04-20T11:51:19.183Z,3.43
2019-04-20T11:53:52.241Z,3.33
2019-04-20T11:56:28.461Z,3.50
2019-04-20T11:58:58.904Z,3.40
2019-04-20T12:02:02.705Z,3.60
2019-04-20T12:04:44.234Z,4.20
2019-04-20T12:07:09.247Z,4.17
2019-04-20T12:09:41.855Z,3.97
2019-04-20T12:12:29.320Z,4.60
2019-04-20T12:14:48.467Z,4.12
2019-04-20T12:17:21.787Z,3.95
2019-04-20T12:19:53.813Z,4.40
2019-04-20T12:22:26.201Z,4.40
2019-04-20T12:24:58.243Z,4.65
2019-04-20T12:27:32.449Z,4.00
2019-04-20T12:30:05.892Z,4.12
2019-04-20T12:32:42.857Z,3.72
2019-04-20T12:35:12.546Z,3.60
2019-04-20T12:37:47.223Z,3.85
2019-04-20T12:40:21.874Z,3.70
2019-04-20T12:42:54.938Z,3.47
2019-04-20T12:45:27.614Z,3.55
2019-04-20T12:48:00.004Z,3.17
2019-04-20T12:50:31.937Z,3.70
2019-04-20T12:53:04.461Z,3.58
2019-04-20T12:55:36.788Z,3.43
2019-04-20T12:58:08.740Z,3.50
2019-04-20T13:00:46.038Z,3.10
2019-04-20T13:03:19.372Z,3.10
2019-04-20T13:05:54.087Z,3.15
2019-04-20T13:08:33.859Z,2.87
2019-04-20T13:11:08.753Z,3.35
2019-04-20T13:13:52.476Z,3.75
2019-04-20T13:16:30.385Z,3.22
2019-04-20T13:19:05.717Z,3.37
2019-04-20T13:21:39.083Z,3.12
2019-04-20T13:30:16.565Z,2.97
2019-04-20T13:32:49.766Z,2.62
2019-04-20T13:35:22.516Z,2.98
2019-04-20T13:37:54.306Z,2.62
2019-04-20T13:40:26.091Z,2.72
2019-04-20T13:43:01.709Z,1.98
2019-04-20T13:45:33.288Z,2.50
2019-04-20T13:48:05.066Z,2.40
2019-04-20T13:50:38.170Z,2.40
2019-04-20T13:53:11.589Z,2.15
2019-04-20T13:55:43.603Z,2.40
2019-04-20T13:58:33.876Z,2.05
2019-04-20T14:01:24.713Z,2.10
2019-04-20T14:04:23.231Z,2.00
2019-04-20T14:06:57.570Z,1.98
2019-04-20T14:09:29.781Z,2.10
2019-04-20T14:12:14.045Z,2.33
2019-04-20T14:14:37.205Z,2.23
2019-04-20T14:17:09.215Z,2.70
2019-04-20T14:19:41.142Z,2.10
2019-04-20T14:22:13.206Z,2.17
2019-04-20T14:24:46.941Z,2.20
2019-04-20T14:27:19.050Z,1.80
2019-04-20T14:29:51.037Z,1.67
2019-04-20T14:32:24.921Z,2.10
2019-04-20T14:34:56.927Z,2.00
2019-04-20T14:37:29.051Z,2.20
2019-04-20T14:40:01.843Z,2.13
2019-04-20T14:42:41.903Z,2.00
2019-04-20T14:45:08.889Z,2.43
2019-04-20T14:47:41.546Z,2.60
2019-04-20T14:50:13.775Z,2.20
2019-04-20T14:52:47.176Z,2.23
2019-04-20T14:55:19.500Z,2.27
2019-04-20T14:57:53.228Z,2.60
2019-04-20T15:00:45.780Z,2.27
2019-04-20T15:03:38.438Z,2.50
2019-04-20T15:06:09.675Z,2.50
2019-04-20T15:08:42.909Z,2.30
2019-04-20T15:11:14.891Z,2.50
2019-04-20T15:13:48.921Z,2.50
2019-04-20T15:16:22.372Z,2.37
2019-04-20T15:19:12.071Z,2.63
2019-04-20T15:21:47.321Z,2.63
2019-04-20T15:24:19.676Z,2.30
2019-04-20T15:26:52.155Z,2.70
2019-04-20T15:29:24.332Z,2.97
2019-04-20T15:31:56.498Z,2.77
2019-04-20T15:34:28.855Z,2.77
2019-04-20T15:37:02.358Z,2.53
2019-04-20T15:39:34.880Z,2.87
2019-04-20T15:42:07.417Z,2.90
2019-04-20T15:44:39.744Z,2.90
2019-04-20T15:47:11.511Z,3.37
2019-04-20T15:49:44.149Z,3.13
2019-04-20T15:52:22.559Z,3.30
2019-04-20T15:54:49.846Z,3.20
2019-04-20T15:57:25.728Z,3.10
2019-04-20T15:59:56.188Z,2.93
2019-04-20T16:02:39.037Z,3.40
2019-04-20T16:05:30.396Z,3.03
2019-04-20T16:08:38.314Z,3.10
2019-04-20T16:11:11.374Z,2.70
2019-04-20T16:13:47.562Z,3.43
2019-04-20T16:16:19.488Z,3.47
2019-04-20T16:18:52.802Z,3.17
2019-04-20T16:21:28.042Z,3.07
2019-04-20T16:24:06.792Z,3.30
2019-04-20T16:26:49.578Z,2.70
2019-04-20T16:29:23.785Z,3.10
2019-04-20T16:31:56.507Z,3.03
2019-04-20T16:34:29.543Z,2.83
2019-04-20T16:37:02.160Z,3.00
2019-04-20T16:39:34.869Z,3.30
2019-04-20T16:42:08.709Z,4.10
2019-04-20T16:44:41.124Z,3.23
2019-04-20T16:47:14.335Z,2.90
2019-04-20T16:49:46.734Z,3.20
2019-04-20T16:52:19.048Z,3.20
2019-04-20T16:54:51.260Z,3.60
2019-04-20T16:57:23.792Z,3.70
2019-04-20T16:59:58.191Z,3.40
2019-04-20T17:02:31.913Z,3.73
2019-04-20T17:05:05.109Z,4.13
2019-04-20T17:07:40.192Z,3.60
2019-04-20T17:10:13.714Z,4.87
2019-04-20T17:12:46.092Z,4.97
2019-04-20T17:15:19.657Z,5.03
2019-04-20T17:17:52.959Z,5.20
2019-04-20T17:20:27.024Z,4.97
2019-04-20T17:22:58.662Z,4.83
2019-04-20T17:25:30.236Z,4.40
2019-04-20T17:28:20.696Z,4.43
2019-04-20T17:31:15.592Z,4.03
2019-04-20T17:34:01.468Z,4.00
2019-04-20T17:36:29.840Z,4.20
2019-04-20T17:39:06.053Z,4.00
2019-04-20T17:41:55.787Z,3.90
2019-04-20T17:44:25.030Z,5.03
2019-04-20T17:46:57.807Z,4.90
2019-04-20T17:49:29.218Z,4.80
2019-04-20T17:52:17.643Z,4.40
2019-04-20T17:54:45.390Z,3.93
2019-04-20T17:57:17.556Z,4.50
2019-04-20T17:59:59.608Z,4.20
2019-04-20T18:02:59.328Z,4.63
2019-04-20T18:06:06.193Z,5.27
2019-04-20T18:08:36.943Z,5.40
2019-04-20T18:11:01.857Z,5.63
2019-04-20T18:13:30.326Z,5.70
2019-04-20T18:16:22.214Z,5.90
2019-04-20T18:19:04.017Z,6.10
2019-04-20T18:21:35.870Z,6.17
2019-04-20T18:24:14.505Z,6.53
2019-04-20T18:26:59.154Z,6.60
2019-04-20T18:29:39.839Z,6.67
2019-04-20T18:32:20.285Z,6.10
2019-04-20T18:35:04.837Z,6.50
2019-04-20T18:37:36.457Z,5.83
2019-04-20T18:40:12.724Z,6.07
2019-04-20T18:42:44.228Z,6.33
2019-04-20T18:45:29.572Z,7.00
2019-04-20T18:48:13.037Z,7.13
2019-04-20T18:50:31.960Z,7.30
2019-04-20T18:52:58.340Z,6.70
2019-04-20T18:55:41.651Z,7.60
2019-04-20T18:58:04.717Z,6.80
2019-04-20T19:00:43.712Z,7.23
2019-04-20T19:03:20.570Z,6.80
2019-04-20T19:05:47.476Z,6.83
2019-04-20T19:08:30.262Z,6.37
2019-04-20T19:11:04.128Z,6.37
2019-04-20T19:13:38.705Z,6.90
2019-04-20T19:16:34.652Z,7.00
2019-04-20T19:19:24.250Z,6.17
2019-04-20T19:21:52.056Z,7.33
2019-04-20T19:24:29.529Z,7.90
2019-04-20T19:27:03.523Z,7.67
2019-04-20T19:29:39.154Z,7.93
2019-04-20T19:32:23.830Z,6.37
2019-04-20T19:34:50.045Z,6.80
2019-04-20T19:37:24.249Z,7.23
2019-04-20T19:40:02.789Z,7.17
2019-04-20T19:42:35.954Z,6.20
2019-04-20T19:45:27.428Z,6.27
2019-04-20T19:47:48.249Z,6.37
2019-04-20T19:53:13.745Z,6.17
2019-04-20T19:55:31.361Z,6.83
2019-04-20T19:58:01.393Z,6.13
2019-04-20T20:00:51.219Z,6.10
2019-04-20T20:03:22.087Z,6.37
2019-04-20T20:05:55.819Z,6.10
2019-04-20T20:08:29.938Z,6.50
2019-04-20T20:11:02.997Z,6.00
2019-04-20T20:13:42.927Z,6.30
2019-04-20T20:16:14.261Z,6.20
2019-04-20T20:18:54.522Z,6.13
2019-04-20T20:21:27.250Z,6.03
2019-04-20T20:23:50.132Z,6.10
2019-04-20T20:26:29.472Z,6.33
2019-04-20T20:29:08.215Z,5.90
2019-04-20T20:31:46.109Z,5.83
2019-04-20T20:34:15.783Z,6.03
2019-04-20T20:36:43.520Z,5.73
2019-04-20T20:39:16.672Z,6.10
2019-04-20T20:42:00.457Z,5.97
2019-04-20T20:44:36.043Z,6.50
2019-04-20T20:47:03.536Z,5.90
2019-04-20T20:49:48.645Z,6.33
2019-04-20T20:52:20.498Z,5.67
2019-04-20T20:54:44.884Z,5.63
2019-04-20T20:57:16.554Z,6.00
2019-04-20T20:59:54.822Z,5.90
2019-04-20T21:02:22.490Z,5.30
2019-04-20T21:04:53.262Z,5.83
2019-04-20T21:07:26.721Z,5.87
2019-04-20T21:09:58.737Z,6.20
2019-04-20T21:12:36.390Z,6.17
2019-04-20T21:15:12.041Z,5.77
2019-04-20T21:18:05.582Z,6.27
2019-04-20T21:20:31.280Z,6.13
2019-04-20T21:23:02.678Z,6.73
2019-04-20T21:25:34.575Z,6.17
2019-04-20T21:28:02.593Z,6.40
2019-04-20T21:30:40.007Z,6.93
2019-04-20T21:33:09.762Z,6.40
2019-04-20T21:35:46.418Z,6.90
2019-04-20T21:38:18.507Z,7.33
2019-04-20T21:40:54.867Z,7.03
2019-04-20T21:43:27.928Z,6.33
2019-04-20T21:46:02.874Z,6.60
2019-04-20T21:48:43.949Z,6.50
2019-04-20T21:51:22.873Z,6.97
2019-04-20T21:53:37.851Z,7.03
2019-04-20T21:56:12.251Z,6.00
2019-04-20T21:58:50.430Z,6.30
2019-04-20T22:01:27.295Z,6.40
2019-04-20T22:03:54.296Z,6.53
2019-04-20T22:06:26.660Z,6.93
2019-04-20T22:09:02.096Z,6.87
2019-04-20T22:11:33.772Z,6.60
2019-04-20T22:14:12.949Z,6.90
2019-04-20T22:16:44.097Z,7.27
2019-04-20T22:19:28.573Z,6.60
2019-04-20T22:22:00.041Z,5.93
2019-04-20T22:24:34.246Z,6.67
2019-04-20T22:27:05.113Z,6.63
2019-04-20T22:29:26.069Z,6.23
2019-04-20T22:32:04.091Z,6.17
2019-04-20T22:34:31.897Z,6.43
2019-04-20T22:37:08.562Z,6.20
2019-04-20T22:39:46.670Z,6.13
2019-04-20T22:42:16.488Z,6.23
2019-04-20T22:44:56.599Z,6.03
2019-04-20T22:47:29.324Z,6.30
2019-04-20T22:50:21.889Z,6.70
2019-04-20T22:52:47.819Z,6.10
2019-04-20T22:55:38.907Z,6.23
2019-04-20T22:57:53.408Z,5.73
2019-04-20T23:00:29.222Z,5.90
2019-04-20T23:02:50.943Z,5.93
2019-04-20T23:05:24.710Z,5.67
2019-04-20T23:07:57.031Z,6.47
2019-04-20T23:10:35.826Z,6.03
2019-04-20T23:13:03.206Z,5.93
2019-04-20T23:15:36.292Z,6.03
2019-04-20T23:18:10.364Z,6.23
2019-04-20T23:20:42.797Z,5.80
2019-04-20T23:23:20.772Z,6.13
2019-04-20T23:25:49.324Z,6.10
2019-04-20T23:28:23.055Z,6.33
2019-04-20T23:31:04.515Z,5.80
2019-04-20T23:33:29.534Z,6.20
2019-04-20T23:36:04.375Z,5.67
2019-04-20T23:38:35.011Z,5.87
2019-04-20T23:41:08.469Z,6.33
2019-04-20T23:43:45.280Z,5.73
2019-04-20T23:47:04.621Z,5.83
2019-04-20T23:49:53.570Z,6.00
2019-04-20T23:52:33.804Z,5.63
2019-04-20T23:54:47.317Z,6.00
2019-04-20T23:57:13.542Z,6.17
2019-04-20T23:59:46.999Z,6.43
